sensor_id;sensor_type;location;lat;lon;timestamp;temperature;humidity
17774;DHT22;9011;33.236;-97.118;2022-10-23T00:01:21;27.60;99.90
17774;DHT22;9011;33.236;-97.118;2022-10-23T00:03:53;27.60;99.90
17774;DHT22;9011;33.236;-97.118;2022-10-23T00:06:22;27.50;99.90
17774;DHT22;9011;33.236;-97.118;2022-10-23T00:08:50;27.50;99.90
17774;DHT22;9011;33.236;-97.118;2022-10-23T00:11:20;27.40;99.90
17774;DHT22;9011;33.236;-97.118;2022-10-23T00:13:49;27.40;99.90
17774;DHT22;9011;33.236;-97.118;2022-10-23T00:16:18;27.30;99.90
17774;DHT22;9011;33.236;-97.118;2022-10-23T00:18:46;27.30;99.90
17774;DHT22;9011;33.236;-97.118;2022-10-23T00:21:16;27.20;99.90
17774;DHT22;9011;33.236;-97.118;2022-10-23T00:23:45;27.20;99.90
17774;DHT22;9011;33.236;-97.118;2022-10-23T00:26:14;27.20;99.90
17774;DHT22;9011;33.236;-97.118;2022-10-23T00:28:42;27.10;99.90
17774;DHT22;9011;33.236;-97.118;2022-10-23T00:31:11;27.10;99.90
17774;DHT22;9011;33.236;-97.118;2022-10-23T00:33:40;27.10;99.90
17774;DHT22;9011;33.236;-97.118;2022-10-23T00:36:10;27.00;99.90
17774;DHT22;9011;33.236;-97.118;2022-10-23T00:38:41;27.00;99.90
17774;DHT22;9011;33.236;-97.118;2022-10-23T00:41:14;27.00;99.90
17774;DHT22;9011;33.236;-97.118;2022-10-23T00:43:58;27.00;99.90
17774;DHT22;9011;33.236;-97.118;2022-10-23T00:46:27;26.90;99.90
17774;DHT22;9011;33.236;-97.118;2022-10-23T00:48:56;26.90;99.90
17774;DHT22;9011;33.236;-97.118;2022-10-23T00:51:27;26.80;99.90
17774;DHT22;9011;33.236;-97.118;2022-10-23T00:53:59;26.80;99.90
17774;DHT22;9011;33.236;-97.118;2022-10-23T00:56:28;26.80;99.90
17774;DHT22;9011;33.236;-97.118;2022-10-23T00:58:57;26.80;99.90
17774;DHT22;9011;33.236;-97.118;2022-10-23T01:01:25;26.80;99.90
17774;DHT22;9011;33.236;-97.118;2022-10-23T01:03:54;26.70;99.90
17774;DHT22;9011;33.236;-97.118;2022-10-23T01:06:30;26.70;99.90
17774;DHT22;9011;33.236;-97.118;2022-10-23T01:09:09;26.70;99.90
17774;DHT22;9011;33.236;-97.118;2022-10-23T01:11:42;26.70;99.90
17774;DHT22;9011;33.236;-97.118;2022-10-23T01:14:20;26.60;99.90
17774;DHT22;9011;33.236;-97.118;2022-10-23T01:16:57;26.60;99.90
17774;DHT22;9011;33.236;-97.118;2022-10-23T01:19:39;26.60;99.90
17774;DHT22;9011;33.236;-97.118;2022-10-23T01:22:24;26.60;99.90
17774;DHT22;9011;33.236;-97.118;2022-10-23T01:24:59;26.60;99.90
17774;DHT22;9011;33.236;-97.118;2022-10-23T01:27:32;26.60;99.90
17774;DHT22;9011;33.236;-97.118;2022-10-23T01:30:05;26.50;99.90
17774;DHT22;9011;33.236;-97.118;2022-10-23T01:32:38;26.50;99.90
17774;DHT22;9011;33.236;-97.118;2022-10-23T01:35:12;26.50;99.90
17774;DHT22;9011;33.236;-97.118;2022-10-23T01:37:43;26.40;99.90
17774;DHT22;9011;33.236;-97.118;2022-10-23T01:40:17;26.40;99.90
17774;DHT22;9011;33.236;-97.118;2022-10-23T01:42:52;26.40;99.90
17774;DHT22;9011;33.236;-97.118;2022-10-23T01:45:24;26.30;99.90
17774;DHT22;9011;33.236;-97.118;2022-10-23T01:47:55;26.30;99.90
17774;DHT22;9011;33.236;-97.118;2022-10-23T01:50:24;26.30;99.90
17774;DHT22;9011;33.236;-97.118;2022-10-23T01:52:53;26.30;99.90
17774;DHT22;9011;33.236;-97.118;2022-10-23T01:55:22;26.20;99.90
17774;DHT22;9011;33.236;-97.118;2022-10-23T01:57:53;26.20;99.90
17774;DHT22;9011;33.236;-97.118;2022-10-23T02:00:22;26.20;99.90
17774;DHT22;9011;33.236;-97.118;2022-10-23T02:02:51;26.20;99.90
17774;DHT22;9011;33.236;-97.118;2022-10-23T02:05:22;26.20;99.90
17774;DHT22;9011;33.236;-97.118;2022-10-23T02:07:51;26.10;99.90
17774;DHT22;9011;33.236;-97.118;2022-10-23T02:10:20;26.10;99.90
17774;DHT22;9011;33.236;-97.118;2022-10-23T02:12:57;26.10;99.90
17774;DHT22;9011;33.236;-97.118;2022-10-23T02:15:29;26.10;99.90
17774;DHT22;9011;33.236;-97.118;2022-10-23T02:18:05;26.10;99.90
17774;DHT22;9011;33.236;-97.118;2022-10-23T02:20:38;26.10;99.90
17774;DHT22;9011;33.236;-97.118;2022-10-23T02:23:14;26.10;99.90
17774;DHT22;9011;33.236;-97.118;2022-10-23T02:25:48;26.10;99.90
17774;DHT22;9011;33.236;-97.118;2022-10-23T02:28:23;26.00;99.90
17774;DHT22;9011;33.236;-97.118;2022-10-23T02:30:53;26.00;99.90
17774;DHT22;9011;33.236;-97.118;2022-10-23T02:33:26;26.00;99.90
17774;DHT22;9011;33.236;-97.118;2022-10-23T02:35:58;26.00;99.90
17774;DHT22;9011;33.236;-97.118;2022-10-23T02:38:32;25.90;99.90
17774;DHT22;9011;33.236;-97.118;2022-10-23T02:41:11;25.90;99.90
17774;DHT22;9011;33.236;-97.118;2022-10-23T02:43:49;25.90;99.90
17774;DHT22;9011;33.236;-97.118;2022-10-23T02:46:23;25.90;99.90
17774;DHT22;9011;33.236;-97.118;2022-10-23T02:48:59;25.90;99.90
17774;DHT22;9011;33.236;-97.118;2022-10-23T02:51:34;25.90;99.90
17774;DHT22;9011;33.236;-97.118;2022-10-23T02:54:07;25.80;99.90
17774;DHT22;9011;33.236;-97.118;2022-10-23T02:56:44;25.80;99.90
17774;DHT22;9011;33.236;-97.118;2022-10-23T02:59:20;25.80;99.90
17774;DHT22;9011;33.236;-97.118;2022-10-23T03:01:51;25.80;99.90
17774;DHT22;9011;33.236;-97.118;2022-10-23T03:04:23;25.80;99.90
17774;DHT22;9011;33.236;-97.118;2022-10-23T03:06:53;25.80;99.90
17774;DHT22;9011;33.236;-97.118;2022-10-23T03:09:24;25.70;99.90
17774;DHT22;9011;33.236;-97.118;2022-10-23T03:11:56;25.80;99.90
17774;DHT22;9011;33.236;-97.118;2022-10-23T03:14:28;25.70;99.90
17774;DHT22;9011;33.236;-97.118;2022-10-23T03:17:00;25.70;99.90
17774;DHT22;9011;33.236;-97.118;2022-10-23T03:19:33;25.70;99.90
17774;DHT22;9011;33.236;-97.118;2022-10-23T03:22:04;25.70;99.90
17774;DHT22;9011;33.236;-97.118;2022-10-23T03:24:36;25.70;99.90
17774;DHT22;9011;33.236;-97.118;2022-10-23T03:27:04;25.60;99.90
17774;DHT22;9011;33.236;-97.118;2022-10-23T03:29:34;25.60;99.90
17774;DHT22;9011;33.236;-97.118;2022-10-23T03:32:03;25.60;99.90
17774;DHT22;9011;33.236;-97.118;2022-10-23T03:34:31;25.50;99.90
17774;DHT22;9011;33.236;-97.118;2022-10-23T03:37:00;25.50;99.90
17774;DHT22;9011;33.236;-97.118;2022-10-23T03:39:28;25.50;99.90
17774;DHT22;9011;33.236;-97.118;2022-10-23T03:41:56;25.50;99.90
17774;DHT22;9011;33.236;-97.118;2022-10-23T03:44:25;25.50;99.90
17774;DHT22;9011;33.236;-97.118;2022-10-23T03:46:55;25.40;99.90
17774;DHT22;9011;33.236;-97.118;2022-10-23T03:49:23;25.40;99.90
17774;DHT22;9011;33.236;-97.118;2022-10-23T03:51:51;25.40;99.90
17774;DHT22;9011;33.236;-97.118;2022-10-23T03:54:21;25.30;99.90
17774;DHT22;9011;33.236;-97.118;2022-10-23T03:56:50;25.30;99.90
17774;DHT22;9011;33.236;-97.118;2022-10-23T03:59:18;25.30;99.90
17774;DHT22;9011;33.236;-97.118;2022-10-23T04:01:47;25.30;99.90
17774;DHT22;9011;33.236;-97.118;2022-10-23T04:04:17;25.30;99.90
17774;DHT22;9011;33.236;-97.118;2022-10-23T04:06:45;25.30;99.90
17774;DHT22;9011;33.236;-97.118;2022-10-23T04:09:13;25.30;99.90
17774;DHT22;9011;33.236;-97.118;2022-10-23T04:11:42;25.20;99.90
17774;DHT22;9011;33.236;-97.118;2022-10-23T04:14:11;25.20;99.90
17774;DHT22;9011;33.236;-97.118;2022-10-23T04:16:40;25.20;99.90
17774;DHT22;9011;33.236;-97.118;2022-10-23T04:19:08;25.10;99.90
17774;DHT22;9011;33.236;-97.118;2022-10-23T04:21:38;25.10;99.90
17774;DHT22;9011;33.236;-97.118;2022-10-23T04:24:07;25.10;99.90
17774;DHT22;9011;33.236;-97.118;2022-10-23T04:26:35;25.10;99.90
17774;DHT22;9011;33.236;-97.118;2022-10-23T04:29:03;25.10;99.90
17774;DHT22;9011;33.236;-97.118;2022-10-23T04:31:32;25.10;99.90
17774;DHT22;9011;33.236;-97.118;2022-10-23T04:34:00;25.00;99.90
17774;DHT22;9011;33.236;-97.118;2022-10-23T04:36:28;25.00;99.90
17774;DHT22;9011;33.236;-97.118;2022-10-23T04:38:58;25.00;99.90
17774;DHT22;9011;33.236;-97.118;2022-10-23T04:41:26;25.00;99.90
17774;DHT22;9011;33.236;-97.118;2022-10-23T04:43:54;25.00;99.90
17774;DHT22;9011;33.236;-97.118;2022-10-23T04:46:23;24.90;99.90
17774;DHT22;9011;33.236;-97.118;2022-10-23T04:48:51;24.90;99.90
17774;DHT22;9011;33.236;-97.118;2022-10-23T04:51:19;24.90;99.90
17774;DHT22;9011;33.236;-97.118;2022-10-23T04:53:47;24.90;99.90
17774;DHT22;9011;33.236;-97.118;2022-10-23T04:56:17;24.90;99.90
17774;DHT22;9011;33.236;-97.118;2022-10-23T04:58:46;24.90;99.90
17774;DHT22;9011;33.236;-97.118;2022-10-23T05:01:14;24.80;99.90
17774;DHT22;9011;33.236;-97.118;2022-10-23T05:03:42;24.80;99.90
17774;DHT22;9011;33.236;-97.118;2022-10-23T05:06:11;24.70;99.90
17774;DHT22;9011;33.236;-97.118;2022-10-23T05:08:39;24.70;99.90
17774;DHT22;9011;33.236;-97.118;2022-10-23T05:11:07;24.70;99.90
17774;DHT22;9011;33.236;-97.118;2022-10-23T05:13:37;24.60;99.90
17774;DHT22;9011;33.236;-97.118;2022-10-23T05:16:05;24.60;99.90
17774;DHT22;9011;33.236;-97.118;2022-10-23T05:18:36;24.50;99.90
17774;DHT22;9011;33.236;-97.118;2022-10-23T05:21:09;24.50;99.90
17774;DHT22;9011;33.236;-97.118;2022-10-23T05:23:40;24.50;99.90
17774;DHT22;9011;33.236;-97.118;2022-10-23T05:26:09;24.50;99.90
17774;DHT22;9011;33.236;-97.118;2022-10-23T05:28:39;24.40;99.90
17774;DHT22;9011;33.236;-97.118;2022-10-23T05:31:07;24.40;99.90
17774;DHT22;9011;33.236;-97.118;2022-10-23T05:33:36;24.40;99.90
17774;DHT22;9011;33.236;-97.118;2022-10-23T05:36:05;24.30;99.90
17774;DHT22;9011;33.236;-97.118;2022-10-23T05:38:34;24.30;99.90
17774;DHT22;9011;33.236;-97.118;2022-10-23T05:41:03;24.20;99.90
17774;DHT22;9011;33.236;-97.118;2022-10-23T05:43:31;24.20;99.90
17774;DHT22;9011;33.236;-97.118;2022-10-23T05:46:03;24.20;99.90
17774;DHT22;9011;33.236;-97.118;2022-10-23T05:48:32;24.10;99.90
17774;DHT22;9011;33.236;-97.118;2022-10-23T05:51:05;24.10;99.90
17774;DHT22;9011;33.236;-97.118;2022-10-23T05:53:33;24.10;99.90
17774;DHT22;9011;33.236;-97.118;2022-10-23T05:56:05;24.00;99.90
17774;DHT22;9011;33.236;-97.118;2022-10-23T05:58:34;24.00;99.90
17774;DHT22;9011;33.236;-97.118;2022-10-23T06:01:07;23.90;99.90
17774;DHT22;9011;33.236;-97.118;2022-10-23T06:03:36;23.90;99.90
17774;DHT22;9011;33.236;-97.118;2022-10-23T06:06:05;23.90;99.90
17774;DHT22;9011;33.236;-97.118;2022-10-23T06:08:34;23.80;99.90
17774;DHT22;9011;33.236;-97.118;2022-10-23T06:11:06;23.80;99.90
17774;DHT22;9011;33.236;-97.118;2022-10-23T06:13:35;23.80;99.90
17774;DHT22;9011;33.236;-97.118;2022-10-23T06:16:12;23.70;99.90
17774;DHT22;9011;33.236;-97.118;2022-10-23T06:18:41;23.60;99.90
17774;DHT22;9011;33.236;-97.118;2022-10-23T06:21:09;23.50;99.90
17774;DHT22;9011;33.236;-97.118;2022-10-23T06:23:39;23.50;99.90
17774;DHT22;9011;33.236;-97.118;2022-10-23T06:26:10;23.50;99.90
17774;DHT22;9011;33.236;-97.118;2022-10-23T06:28:39;23.50;99.90
17774;DHT22;9011;33.236;-97.118;2022-10-23T06:31:10;23.50;99.90
17774;DHT22;9011;33.236;-97.118;2022-10-23T06:33:38;23.40;99.90
17774;DHT22;9011;33.236;-97.118;2022-10-23T06:36:08;23.30;99.90
17774;DHT22;9011;33.236;-97.118;2022-10-23T06:38:37;23.30;99.90
17774;DHT22;9011;33.236;-97.118;2022-10-23T06:41:13;23.30;99.90
17774;DHT22;9011;33.236;-97.118;2022-10-23T06:43:42;23.30;99.90
17774;DHT22;9011;33.236;-97.118;2022-10-23T06:46:12;23.20;99.90
17774;DHT22;9011;33.236;-97.118;2022-10-23T06:48:41;23.20;99.90
17774;DHT22;9011;33.236;-97.118;2022-10-23T06:51:11;23.20;99.90
17774;DHT22;9011;33.236;-97.118;2022-10-23T06:53:40;23.10;99.90
17774;DHT22;9011;33.236;-97.118;2022-10-23T06:56:08;23.00;99.90
17774;DHT22;9011;33.236;-97.118;2022-10-23T06:58:38;23.00;99.90
17774;DHT22;9011;33.236;-97.118;2022-10-23T07:01:08;23.00;99.90
17774;DHT22;9011;33.236;-97.118;2022-10-23T07:03:39;22.90;99.90
17774;DHT22;9011;33.236;-97.118;2022-10-23T07:06:09;22.90;99.90
17774;DHT22;9011;33.236;-97.118;2022-10-23T07:08:37;22.90;99.90
17774;DHT22;9011;33.236;-97.118;2022-10-23T07:11:07;22.90;99.90
17774;DHT22;9011;33.236;-97.118;2022-10-23T07:13:37;22.90;99.90
17774;DHT22;9011;33.236;-97.118;2022-10-23T07:16:10;22.80;99.90
17774;DHT22;9011;33.236;-97.118;2022-10-23T07:18:40;22.70;99.90
17774;DHT22;9011;33.236;-97.118;2022-10-23T07:21:09;22.80;99.90
17774;DHT22;9011;33.236;-97.118;2022-10-23T07:23:37;22.70;99.90
17774;DHT22;9011;33.236;-97.118;2022-10-23T07:26:07;22.60;99.90
17774;DHT22;9011;33.236;-97.118;2022-10-23T07:28:35;22.60;99.90
17774;DHT22;9011;33.236;-97.118;2022-10-23T07:31:04;22.60;99.90
17774;DHT22;9011;33.236;-97.118;2022-10-23T07:33:32;22.50;99.90
17774;DHT22;9011;33.236;-97.118;2022-10-23T07:36:03;22.60;99.90
17774;DHT22;9011;33.236;-97.118;2022-10-23T07:38:31;22.50;99.90
17774;DHT22;9011;33.236;-97.118;2022-10-23T07:41:00;22.50;99.90
17774;DHT22;9011;33.236;-97.118;2022-10-23T07:43:28;22.40;99.90
17774;DHT22;9011;33.236;-97.118;2022-10-23T07:45:57;22.40;99.90
17774;DHT22;9011;33.236;-97.118;2022-10-23T07:48:25;22.40;99.90
17774;DHT22;9011;33.236;-97.118;2022-10-23T07:50:56;22.40;99.90
17774;DHT22;9011;33.236;-97.118;2022-10-23T07:53:27;22.30;99.90
17774;DHT22;9011;33.236;-97.118;2022-10-23T07:55:57;22.30;99.90
17774;DHT22;9011;33.236;-97.118;2022-10-23T07:58:26;22.20;99.90
17774;DHT22;9011;33.236;-97.118;2022-10-23T08:00:59;22.20;99.90
17774;DHT22;9011;33.236;-97.118;2022-10-23T08:03:29;22.10;99.90
17774;DHT22;9011;33.236;-97.118;2022-10-23T08:05:58;22.10;99.90
17774;DHT22;9011;33.236;-97.118;2022-10-23T08:08:28;22.10;99.90
17774;DHT22;9011;33.236;-97.118;2022-10-23T08:10:56;22.10;99.90
17774;DHT22;9011;33.236;-97.118;2022-10-23T08:13:25;22.10;99.90
17774;DHT22;9011;33.236;-97.118;2022-10-23T08:15:53;22.00;99.90
17774;DHT22;9011;33.236;-97.118;2022-10-23T08:18:22;22.00;99.90
17774;DHT22;9011;33.236;-97.118;2022-10-23T08:20:50;21.90;99.90
17774;DHT22;9011;33.236;-97.118;2022-10-23T08:23:19;21.90;99.90
17774;DHT22;9011;33.236;-97.118;2022-10-23T08:25:49;21.90;99.90
17774;DHT22;9011;33.236;-97.118;2022-10-23T08:28:23;21.90;99.90
17774;DHT22;9011;33.236;-97.118;2022-10-23T08:30:51;21.90;99.90
17774;DHT22;9011;33.236;-97.118;2022-10-23T08:33:19;21.90;99.90
17774;DHT22;9011;33.236;-97.118;2022-10-23T08:35:48;21.80;99.90
17774;DHT22;9011;33.236;-97.118;2022-10-23T08:38:16;21.80;99.90
17774;DHT22;9011;33.236;-97.118;2022-10-23T08:40:45;21.70;99.90
17774;DHT22;9011;33.236;-97.118;2022-10-23T08:43:19;21.70;99.90
17774;DHT22;9011;33.236;-97.118;2022-10-23T08:45:51;21.60;99.90
17774;DHT22;9011;33.236;-97.118;2022-10-23T08:48:25;21.60;99.90
17774;DHT22;9011;33.236;-97.118;2022-10-23T08:50:57;21.60;99.90
17774;DHT22;9011;33.236;-97.118;2022-10-23T08:53:34;21.60;99.90
17774;DHT22;9011;33.236;-97.118;2022-10-23T08:56:06;21.60;99.90
17774;DHT22;9011;33.236;-97.118;2022-10-23T08:58:40;21.60;99.90
17774;DHT22;9011;33.236;-97.118;2022-10-23T09:01:28;21.50;99.90
17774;DHT22;9011;33.236;-97.118;2022-10-23T09:03:58;21.50;99.90
17774;DHT22;9011;33.236;-97.118;2022-10-23T09:06:33;21.50;99.90
17774;DHT22;9011;33.236;-97.118;2022-10-23T09:09:23;21.50;99.90
17774;DHT22;9011;33.236;-97.118;2022-10-23T09:12:01;21.40;99.90
17774;DHT22;9011;33.236;-97.118;2022-10-23T09:14:44;21.40;99.90
17774;DHT22;9011;33.236;-97.118;2022-10-23T09:17:24;21.30;99.90
17774;DHT22;9011;33.236;-97.118;2022-10-23T09:19:58;21.30;99.90
17774;DHT22;9011;33.236;-97.118;2022-10-23T09:22:27;21.30;99.90
17774;DHT22;9011;33.236;-97.118;2022-10-23T09:24:55;21.30;99.90
17774;DHT22;9011;33.236;-97.118;2022-10-23T09:27:24;21.20;99.90
17774;DHT22;9011;33.236;-97.118;2022-10-23T09:29:54;21.30;99.90
17774;DHT22;9011;33.236;-97.118;2022-10-23T09:32:35;21.20;99.90
17774;DHT22;9011;33.236;-97.118;2022-10-23T09:35:05;21.10;99.90
17774;DHT22;9011;33.236;-97.118;2022-10-23T09:37:33;21.10;99.90
17774;DHT22;9011;33.236;-97.118;2022-10-23T09:40:16;21.10;99.90
17774;DHT22;9011;33.236;-97.118;2022-10-23T09:42:53;21.20;99.90
17774;DHT22;9011;33.236;-97.118;2022-10-23T09:45:26;21.10;99.90
17774;DHT22;9011;33.236;-97.118;2022-10-23T09:48:13;21.10;99.90
17774;DHT22;9011;33.236;-97.118;2022-10-23T09:50:47;21.10;99.90
17774;DHT22;9011;33.236;-97.118;2022-10-23T09:53:17;21.00;99.90
17774;DHT22;9011;33.236;-97.118;2022-10-23T09:55:53;21.10;99.90
17774;DHT22;9011;33.236;-97.118;2022-10-23T09:58:29;21.00;99.90
17774;DHT22;9011;33.236;-97.118;2022-10-23T10:01:00;21.00;99.90
17774;DHT22;9011;33.236;-97.118;2022-10-23T10:03:28;20.90;99.90
17774;DHT22;9011;33.236;-97.118;2022-10-23T10:05:58;20.90;99.90
17774;DHT22;9011;33.236;-97.118;2022-10-23T10:08:35;20.90;99.90
17774;DHT22;9011;33.236;-97.118;2022-10-23T10:11:09;20.90;99.90
17774;DHT22;9011;33.236;-97.118;2022-10-23T10:16:47;20.90;99.90
17774;DHT22;9011;33.236;-97.118;2022-10-23T10:19:44;20.90;99.90
17774;DHT22;9011;33.236;-97.118;2022-10-23T10:22:27;20.90;99.90
17774;DHT22;9011;33.236;-97.118;2022-10-23T10:25:02;20.80;99.90
17774;DHT22;9011;33.236;-97.118;2022-10-23T10:27:43;20.80;99.90
17774;DHT22;9011;33.236;-97.118;2022-10-23T10:30:14;20.80;99.90
17774;DHT22;9011;33.236;-97.118;2022-10-23T10:32:48;20.80;99.90
17774;DHT22;9011;33.236;-97.118;2022-10-23T10:35:36;20.70;99.90
17774;DHT22;9011;33.236;-97.118;2022-10-23T10:38:26;20.80;99.90
17774;DHT22;9011;33.236;-97.118;2022-10-23T10:41:13;20.70;99.90
17774;DHT22;9011;33.236;-97.118;2022-10-23T10:43:52;20.70;99.90
17774;DHT22;9011;33.236;-97.118;2022-10-23T10:46:30;20.70;99.90
17774;DHT22;9011;33.236;-97.118;2022-10-23T10:49:06;20.80;99.90
17774;DHT22;9011;33.236;-97.118;2022-10-23T10:51:41;20.80;99.90
17774;DHT22;9011;33.236;-97.118;2022-10-23T10:54:25;20.70;99.90
17774;DHT22;9011;33.236;-97.118;2022-10-23T10:56:59;20.70;99.90
17774;DHT22;9011;33.236;-97.118;2022-10-23T10:59:31;20.70;99.90
17774;DHT22;9011;33.236;-97.118;2022-10-23T11:02:04;20.70;99.90
17774;DHT22;9011;33.236;-97.118;2022-10-23T11:04:40;20.70;99.90
17774;DHT22;9011;33.236;-97.118;2022-10-23T11:07:13;20.70;99.90
17774;DHT22;9011;33.236;-97.118;2022-10-23T11:09:42;20.70;99.90
17774;DHT22;9011;33.236;-97.118;2022-10-23T11:12:15;20.70;99.90
17774;DHT22;9011;33.236;-97.118;2022-10-23T11:14:45;20.60;99.90
17774;DHT22;9011;33.236;-97.118;2022-10-23T11:17:16;20.70;99.90
17774;DHT22;9011;33.236;-97.118;2022-10-23T11:19:51;20.60;99.90
17774;DHT22;9011;33.236;-97.118;2022-10-23T11:22:25;20.70;99.90
17774;DHT22;9011;33.236;-97.118;2022-10-23T11:28:22;20.70;99.90
17774;DHT22;9011;33.236;-97.118;2022-10-23T11:31:06;20.60;99.90
17774;DHT22;9011;33.236;-97.118;2022-10-23T11:34:05;20.60;99.90
17774;DHT22;9011;33.236;-97.118;2022-10-23T11:36:48;20.70;99.90
17774;DHT22;9011;33.236;-97.118;2022-10-23T11:39:22;20.70;99.90
17774;DHT22;9011;33.236;-97.118;2022-10-23T11:41:54;20.60;99.90
17774;DHT22;9011;33.236;-97.118;2022-10-23T11:44:26;20.60;99.90
17774;DHT22;9011;33.236;-97.118;2022-10-23T11:47:02;20.60;99.90
17774;DHT22;9011;33.236;-97.118;2022-10-23T11:49:31;20.60;99.90
17774;DHT22;9011;33.236;-97.118;2022-10-23T11:52:02;20.60;99.90
17774;DHT22;9011;33.236;-97.118;2022-10-23T11:54:31;20.60;99.90
17774;DHT22;9011;33.236;-97.118;2022-10-23T11:57:10;20.60;99.90
17774;DHT22;9011;33.236;-97.118;2022-10-23T11:59:51;20.60;99.90
17774;DHT22;9011;33.236;-97.118;2022-10-23T12:02:29;20.60;99.90
17774;DHT22;9011;33.236;-97.118;2022-10-23T12:05:02;20.60;99.90
17774;DHT22;9011;33.236;-97.118;2022-10-23T12:07:35;20.60;99.90
17774;DHT22;9011;33.236;-97.118;2022-10-23T12:10:05;20.60;99.90
17774;DHT22;9011;33.236;-97.118;2022-10-23T12:12:36;20.60;99.90
17774;DHT22;9011;33.236;-97.118;2022-10-23T12:15:19;20.60;99.90
17774;DHT22;9011;33.236;-97.118;2022-10-23T12:17:49;20.60;99.90
17774;DHT22;9011;33.236;-97.118;2022-10-23T12:20:38;20.60;99.90
17774;DHT22;9011;33.236;-97.118;2022-10-23T12:23:38;20.60;99.90
17774;DHT22;9011;33.236;-97.118;2022-10-23T12:26:31;20.60;99.90
17774;DHT22;9011;33.236;-97.118;2022-10-23T12:29:14;20.60;99.90
17774;DHT22;9011;33.236;-97.118;2022-10-23T12:31:51;20.60;99.90
17774;DHT22;9011;33.236;-97.118;2022-10-23T12:34:35;20.60;99.90
17774;DHT22;9011;33.236;-97.118;2022-10-23T12:37:27;20.70;99.90
17774;DHT22;9011;33.236;-97.118;2022-10-23T12:40:07;20.70;99.90
17774;DHT22;9011;33.236;-97.118;2022-10-23T12:42:36;20.80;99.90
17774;DHT22;9011;33.236;-97.118;2022-10-23T12:45:14;20.80;99.90
17774;DHT22;9011;33.236;-97.118;2022-10-23T12:47:44;20.90;99.90
17774;DHT22;9011;33.236;-97.118;2022-10-23T12:50:18;20.90;99.90
17774;DHT22;9011;33.236;-97.118;2022-10-23T12:52:54;20.90;99.90
17774;DHT22;9011;33.236;-97.118;2022-10-23T12:55:26;20.90;99.90
17774;DHT22;9011;33.236;-97.118;2022-10-23T12:57:55;20.90;99.90
17774;DHT22;9011;33.236;-97.118;2022-10-23T13:00:25;20.90;99.90
17774;DHT22;9011;33.236;-97.118;2022-10-23T13:03:01;21.00;99.90
17774;DHT22;9011;33.236;-97.118;2022-10-23T13:05:31;21.00;99.90
17774;DHT22;9011;33.236;-97.118;2022-10-23T13:08:00;21.10;99.90
17774;DHT22;9011;33.236;-97.118;2022-10-23T13:10:31;21.10;99.90
17774;DHT22;9011;33.236;-97.118;2022-10-23T13:13:02;21.10;99.90
17774;DHT22;9011;33.236;-97.118;2022-10-23T13:15:37;21.20;99.90
17774;DHT22;9011;33.236;-97.118;2022-10-23T13:18:06;21.20;99.90
17774;DHT22;9011;33.236;-97.118;2022-10-23T13:20:35;21.30;99.90
17774;DHT22;9011;33.236;-97.118;2022-10-23T13:23:16;21.30;99.90
17774;DHT22;9011;33.236;-97.118;2022-10-23T13:25:54;21.30;99.90
17774;DHT22;9011;33.236;-97.118;2022-10-23T13:28:24;21.40;99.90
17774;DHT22;9011;33.236;-97.118;2022-10-23T13:31:22;21.40;99.90
17774;DHT22;9011;33.236;-97.118;2022-10-23T13:34:02;21.50;99.90
17774;DHT22;9011;33.236;-97.118;2022-10-23T13:36:33;21.60;99.90
17774;DHT22;9011;33.236;-97.118;2022-10-23T13:39:12;21.60;99.90
17774;DHT22;9011;33.236;-97.118;2022-10-23T13:41:43;21.60;99.90
17774;DHT22;9011;33.236;-97.118;2022-10-23T13:44:13;21.60;99.90
17774;DHT22;9011;33.236;-97.118;2022-10-23T13:46:42;21.70;99.90
17774;DHT22;9011;33.236;-97.118;2022-10-23T13:49:10;21.70;99.90
17774;DHT22;9011;33.236;-97.118;2022-10-23T13:51:41;21.70;99.90
17774;DHT22;9011;33.236;-97.118;2022-10-23T13:54:15;21.80;99.90
17774;DHT22;9011;33.236;-97.118;2022-10-23T13:56:45;21.90;99.90
17774;DHT22;9011;33.236;-97.118;2022-10-23T13:59:14;21.90;99.90
17774;DHT22;9011;33.236;-97.118;2022-10-23T14:01:44;22.00;99.90
17774;DHT22;9011;33.236;-97.118;2022-10-23T14:04:12;22.10;99.90
17774;DHT22;9011;33.236;-97.118;2022-10-23T14:06:41;22.10;99.90
17774;DHT22;9011;33.236;-97.118;2022-10-23T14:09:12;22.20;99.90
17774;DHT22;9011;33.236;-97.118;2022-10-23T14:11:41;22.30;99.90
17774;DHT22;9011;33.236;-97.118;2022-10-23T14:14:10;22.40;99.90
17774;DHT22;9011;33.236;-97.118;2022-10-23T14:16:39;22.50;99.90
17774;DHT22;9011;33.236;-97.118;2022-10-23T14:19:08;22.50;99.90
17774;DHT22;9011;33.236;-97.118;2022-10-23T14:21:36;22.50;99.90
17774;DHT22;9011;33.236;-97.118;2022-10-23T14:24:05;22.50;99.90
17774;DHT22;9011;33.236;-97.118;2022-10-23T14:26:33;22.60;99.90
17774;DHT22;9011;33.236;-97.118;2022-10-23T14:29:02;22.60;99.90
17774;DHT22;9011;33.236;-97.118;2022-10-23T14:31:32;22.70;99.90
17774;DHT22;9011;33.236;-97.118;2022-10-23T14:34:00;22.80;99.90
17774;DHT22;9011;33.236;-97.118;2022-10-23T14:36:28;22.90;99.90
17774;DHT22;9011;33.236;-97.118;2022-10-23T14:38:57;22.90;99.90
17774;DHT22;9011;33.236;-97.118;2022-10-23T14:41:26;22.90;99.90
17774;DHT22;9011;33.236;-97.118;2022-10-23T14:43:54;23.00;99.90
17774;DHT22;9011;33.236;-97.118;2022-10-23T14:46:23;23.10;99.90
17774;DHT22;9011;33.236;-97.118;2022-10-23T14:48:54;23.20;99.90
17774;DHT22;9011;33.236;-97.118;2022-10-23T14:51:24;23.30;99.90
17774;DHT22;9011;33.236;-97.118;2022-10-23T14:53:55;23.30;99.90
17774;DHT22;9011;33.236;-97.118;2022-10-23T14:56:24;23.30;99.90
17774;DHT22;9011;33.236;-97.118;2022-10-23T14:58:53;23.30;99.90
17774;DHT22;9011;33.236;-97.118;2022-10-23T15:01:27;23.30;99.90
17774;DHT22;9011;33.236;-97.118;2022-10-23T15:03:57;23.20;99.90
17774;DHT22;9011;33.236;-97.118;2022-10-23T15:06:26;23.30;99.90
17774;DHT22;9011;33.236;-97.118;2022-10-23T15:08:54;23.30;99.90
17774;DHT22;9011;33.236;-97.118;2022-10-23T15:11:23;23.30;99.90
17774;DHT22;9011;33.236;-97.118;2022-10-23T15:13:52;23.30;99.90
17774;DHT22;9011;33.236;-97.118;2022-10-23T15:16:21;23.30;99.90
17774;DHT22;9011;33.236;-97.118;2022-10-23T15:18:50;23.50;99.90
17774;DHT22;9011;33.236;-97.118;2022-10-23T15:21:20;23.70;99.90
17774;DHT22;9011;33.236;-97.118;2022-10-23T15:23:48;23.90;99.90
17774;DHT22;9011;33.236;-97.118;2022-10-23T15:26:19;24.00;99.90
17774;DHT22;9011;33.236;-97.118;2022-10-23T15:28:52;24.10;99.90
17774;DHT22;9011;33.236;-97.118;2022-10-23T15:31:39;24.20;99.90
17774;DHT22;9011;33.236;-97.118;2022-10-23T15:34:09;24.40;99.90
17774;DHT22;9011;33.236;-97.118;2022-10-23T15:36:39;24.40;99.90
17774;DHT22;9011;33.236;-97.118;2022-10-23T15:39:08;24.50;99.90
17774;DHT22;9011;33.236;-97.118;2022-10-23T15:41:39;24.70;99.90
17774;DHT22;9011;33.236;-97.118;2022-10-23T15:44:08;24.60;99.90
17774;DHT22;9011;33.236;-97.118;2022-10-23T15:46:38;24.70;99.90
17774;DHT22;9011;33.236;-97.118;2022-10-23T15:49:07;24.80;99.90
17774;DHT22;9011;33.236;-97.118;2022-10-23T15:51:38;25.00;99.90